Time;durP1;ratioP1;P1;durP2;ratioP2;P2;SDS_P1;SDS_P2;PMS_P1;PMS_P2;Temp;Humidity;BMP_temperature;BMP_pressure;BME280_temperature;BME280_humidity;BME280_pressure;Samples;Min_cycle;Max_cycle;Signal;HPM_P1;HPM_P2
2022/05/09 00:02:03;;;;;;;4.77;3.70;;;;;;;;;;5062704;28;20662;-73
2022/05/09 00:04:31;;;;;;;3.97;3.67;;;;;;;;;;5072177;28;20232;-74
2022/05/09 00:06:59;;;;;;;4.17;3.40;;;;;;;;;;5072715;28;20222;-74
2022/05/09 00:09:29;;;;;;;6.50;4.10;;;;;;;;;;5073846;28;20332;-74
2022/05/09 00:11:57;;;;;;;4.13;3.83;;;;;;;;;;5065036;28;20237;-74
2022/05/09 00:14:25;;;;;;;6.17;3.30;;;;;;;;;;5065383;28;20210;-74
2022/05/09 00:16:54;;;;;;;3.63;3.13;;;;;;;;;;5058901;28;20218;-73
2022/05/09 00:19:22;;;;;;;4.27;3.87;;;;;;;;;;5071062;28;20202;-74
2022/05/09 00:21:51;;;;;;;4.30;3.90;;;;;;;;;;5058099;28;20682;-74
2022/05/09 00:24:20;;;;;;;4.43;3.73;;;;;;;;;;5062091;28;20202;-74
2022/05/09 00:26:50;;;;;;;4.47;4.07;;;;;;;;;;5069584;28;20654;-74
2022/05/09 00:29:20;;;;;;;3.73;3.50;;;;;;;;;;5066161;28;20223;-74
2022/05/09 00:31:50;;;;;;;4.47;4.07;;;;;;;;;;5062612;28;20260;-74
2022/05/09 00:34:18;;;;;;;3.73;3.40;;;;;;;;;;5070070;28;20211;-75
2022/05/09 00:36:47;;;;;;;6.10;3.53;;;;;;;;;;5064001;28;20283;-74
2022/05/09 00:39:15;;;;;;;4.30;3.90;;;;;;;;;;5061106;28;20241;-74
2022/05/09 00:41:45;;;;;;;4.07;3.70;;;;;;;;;;5059456;28;20199;-74
2022/05/09 00:44:15;;;;;;;3.97;3.67;;;;;;;;;;5067188;28;20268;-74
2022/05/09 00:46:45;;;;;;;4.97;3.80;;;;;;;;;;5061872;28;20214;-73
2022/05/09 00:49:17;;;;;;;4.13;3.73;;;;;;;;;;5058451;28;20210;-74
2022/05/09 00:51:47;;;;;;;4.87;3.60;;;;;;;;;;5066631;28;20198;-74
2022/05/09 00:54:16;;;;;;;4.93;4.43;;;;;;;;;;5061213;28;20286;-72
2022/05/09 00:56:49;;;;;;;5.40;3.73;;;;;;;;;;5062877;28;20282;-73
2022/05/09 00:59:19;;;;;;;4.60;3.57;;;;;;;;;;5071471;28;20562;-72
2022/05/09 01:01:48;;;;;;;3.90;3.47;;;;;;;;;;5066044;28;20241;-72
2022/05/09 01:04:18;;;;;;;4.37;3.97;;;;;;;;;;5062859;28;20313;-73
2022/05/09 01:06:46;;;;;;;5.10;3.60;;;;;;;;;;5060600;28;20222;-74
2022/05/09 01:09:14;;;;;;;3.90;3.57;;;;;;;;;;5070000;28;20266;-72
2022/05/09 01:11:44;;;;;;;6.53;3.80;;;;;;;;;;5065794;28;20211;-72
2022/05/09 01:14:14;;;;;;;4.57;4.17;;;;;;;;;;5068278;28;20207;-72
2022/05/09 01:16:46;;;;;;;5.17;4.33;;;;;;;;;;5069999;28;20226;-73
2022/05/09 01:19:22;;;;;;;4.40;4.10;;;;;;;;;;5065522;28;20273;-74
2022/05/09 01:21:51;;;;;;;4.33;3.90;;;;;;;;;;5065483;28;20237;-71
2022/05/09 01:24:20;;;;;;;4.03;3.63;;;;;;;;;;5065565;28;20238;-75
2022/05/09 01:26:49;;;;;;;4.40;4.10;;;;;;;;;;5063885;28;20222;-77
2022/05/09 01:32:49;;;;;;;4.93;3.93;;;;;;;;;;5071918;28;20287;-74
2022/05/09 01:35:19;;;;;;;4.50;4.10;;;;;;;;;;5060434;28;20230;-72
2022/05/09 01:37:50;;;;;;;4.50;4.10;;;;;;;;;;5068010;28;20609;-70
2022/05/09 01:40:18;;;;;;;4.27;3.90;;;;;;;;;;5074523;28;20222;-74
2022/05/09 01:42:46;;;;;;;4.20;3.80;;;;;;;;;;5070173;28;20228;-74
2022/05/09 01:45:14;;;;;;;4.03;3.70;;;;;;;;;;5069495;28;20245;-74
2022/05/09 01:50:28;;;;;;;5.53;3.77;;;;;;;;;;5063893;28;20235;-72
2022/05/09 01:52:58;;;;;;;5.20;4.10;;;;;;;;;;5070186;28;20230;-71
2022/05/09 01:55:26;;;;;;;5.60;4.40;;;;;;;;;;5063888;28;20302;-71
2022/05/09 01:57:54;;;;;;;5.00;3.90;;;;;;;;;;5067846;28;20253;-72
2022/05/09 02:00:24;;;;;;;5.50;4.20;;;;;;;;;;5073938;28;20199;-73
2022/05/09 02:02:52;;;;;;;4.47;4.07;;;;;;;;;;5065335;28;20258;-73
2022/05/09 02:05:20;;;;;;;4.57;4.13;;;;;;;;;;5072054;28;20732;-71
2022/05/09 02:07:48;;;;;;;4.77;4.27;;;;;;;;;;5060777;28;20203;-73
2022/05/09 02:10:18;;;;;;;6.47;4.57;;;;;;;;;;5074088;28;20312;-73
2022/05/09 02:12:46;;;;;;;4.80;3.93;;;;;;;;;;5066431;28;20245;-72
2022/05/09 02:15:15;;;;;;;5.37;4.80;;;;;;;;;;5068671;28;20203;-73
2022/05/09 02:17:45;;;;;;;7.00;4.60;;;;;;;;;;5063912;28;20210;-72
2022/05/09 02:20:14;;;;;;;5.53;4.33;;;;;;;;;;5060329;28;20206;-74
2022/05/09 02:22:42;;;;;;;4.27;3.87;;;;;;;;;;5069578;28;20203;-72
2022/05/09 02:27:53;;;;;;;5.53;4.33;;;;;;;;;;5068112;28;20535;-73
2022/05/09 02:30:22;;;;;;;4.30;3.80;;;;;;;;;;5064287;28;20223;-73
2022/05/09 02:32:50;;;;;;;3.90;3.60;;;;;;;;;;5072871;28;20226;-73
2022/05/09 02:35:19;;;;;;;4.10;3.80;;;;;;;;;;5063054;28;20199;-73
2022/05/09 02:37:47;;;;;;;5.53;3.73;;;;;;;;;;5067249;28;20202;-72
2022/05/09 02:40:15;;;;;;;4.20;3.80;;;;;;;;;;5068449;28;20637;-72
2022/05/09 02:42:43;;;;;;;4.50;4.13;;;;;;;;;;5062220;28;20236;-73
2022/05/09 02:45:13;;;;;;;4.43;4.00;;;;;;;;;;5062685;28;20234;-74
2022/05/09 02:47:41;;;;;;;6.03;3.90;;;;;;;;;;5064095;28;20233;-75
2022/05/09 02:50:10;;;;;;;5.37;4.03;;;;;;;;;;5071291;28;20258;-74
2022/05/09 02:52:38;;;;;;;4.83;4.33;;;;;;;;;;5064836;28;20198;-75
2022/05/09 02:55:07;;;;;;;4.77;4.20;;;;;;;;;;5066963;28;20278;-74
2022/05/09 02:57:35;;;;;;;4.30;3.90;;;;;;;;;;5065577;28;20272;-75
2022/05/09 03:00:04;;;;;;;4.23;3.83;;;;;;;;;;5060760;28;20226;-75
2022/05/09 03:02:34;;;;;;;5.97;4.00;;;;;;;;;;5062909;28;20235;-75
2022/05/09 03:05:01;;;;;;;4.57;4.03;;;;;;;;;;5065351;28;20720;-75
2022/05/09 03:07:29;;;;;;;5.10;4.20;;;;;;;;;;5063701;28;20260;-75
2022/05/09 03:09:57;;;;;;;5.10;4.30;;;;;;;;;;5071685;28;20246;-74
2022/05/09 03:12:25;;;;;;;4.60;3.80;;;;;;;;;;5064695;28;20253;-75
2022/05/09 03:14:56;;;;;;;6.60;4.40;;;;;;;;;;5064223;28;20203;-74
2022/05/09 03:17:24;;;;;;;4.53;4.07;;;;;;;;;;5067523;28;20223;-74
2022/05/09 03:19:54;;;;;;;5.27;4.77;;;;;;;;;;5058874;28;20194;-76
2022/05/09 03:22:27;;;;;;;7.07;4.30;;;;;;;;;;5061915;28;20614;-75
2022/05/09 03:24:55;;;;;;;7.87;4.87;;;;;;;;;;5066681;28;20227;-74
2022/05/09 03:27:24;;;;;;;6.47;3.97;;;;;;;;;;5066508;28;20272;-75
2022/05/09 03:29:52;;;;;;;4.90;3.80;;;;;;;;;;5063234;28;20257;-75
2022/05/09 03:32:20;;;;;;;5.23;4.43;;;;;;;;;;5072665;28;20282;-75
2022/05/09 03:34:48;;;;;;;4.27;3.87;;;;;;;;;;5062792;28;20678;-74
2022/05/09 03:37:17;;;;;;;6.03;4.00;;;;;;;;;;5074178;28;20278;-74
2022/05/09 03:39:45;;;;;;;4.43;4.00;;;;;;;;;;5070603;28;20242;-72
2022/05/09 03:42:13;;;;;;;5.47;4.50;;;;;;;;;;5060016;28;20202;-72
2022/05/09 03:44:41;;;;;;;4.97;4.27;;;;;;;;;;5065971;28;20230;-74
2022/05/09 03:47:09;;;;;;;5.33;4.87;;;;;;;;;;5061584;28;20265;-74
2022/05/09 03:49:37;;;;;;;4.83;4.40;;;;;;;;;;5071078;28;20257;-74
2022/05/09 03:52:05;;;;;;;4.67;4.27;;;;;;;;;;5065404;28;20637;-73
2022/05/09 03:54:35;;;;;;;6.00;4.27;;;;;;;;;;5061372;28;20222;-72
2022/05/09 03:57:03;;;;;;;4.70;4.20;;;;;;;;;;5069333;28;20225;-72
2022/05/09 03:59:31;;;;;;;4.73;4.27;;;;;;;;;;5062431;28;20686;-72
2022/05/09 04:01:59;;;;;;;4.60;4.20;;;;;;;;;;5060630;28;20199;-72
2022/05/09 04:04:27;;;;;;;6.40;3.93;;;;;;;;;;5059473;28;20210;-72
2022/05/09 04:06:55;;;;;;;5.10;4.60;;;;;;;;;;5062533;28;20372;-72
2022/05/09 04:09:23;;;;;;;7.03;4.47;;;;;;;;;;5074588;28;20241;-72
2022/05/09 04:11:53;;;;;;;5.60;4.50;;;;;;;;;;5062705;28;20199;-73
2022/05/09 04:16:49;;;;;;;5.23;4.73;;;;;;;;;;5065259;28;20239;-70
2022/05/09 04:17:08;;;;;;;5.10;4.57;;;;;;;;;;5068006;28;20323;-70
2022/05/09 04:19:36;;;;;;;6.53;4.07;;;;;;;;;;5066022;28;20206;-70
2022/05/09 04:22:04;;;;;;;5.10;4.60;;;;;;;;;;5061714;28;20286;-64
2022/05/09 04:24:33;;;;;;;6.00;4.83;;;;;;;;;;5063627;28;20233;-63
2022/05/09 04:27:03;;;;;;;5.47;4.67;;;;;;;;;;5057993;28;20218;-65
2022/05/09 04:29:30;;;;;;;6.90;5.53;;;;;;;;;;5064173;28;20257;-65
2022/05/09 04:31:59;;;;;;;7.23;4.73;;;;;;;;;;5070757;28;20202;-65
2022/05/09 04:34:27;;;;;;;6.67;6.07;;;;;;;;;;5060177;28;20550;-64
2022/05/09 04:36:55;;;;;;;5.23;4.70;;;;;;;;;;5069190;28;20246;-63
2022/05/09 04:39:23;;;;;;;5.27;4.83;;;;;;;;;;5070054;28;20234;-64
2022/05/09 04:41:51;;;;;;;7.03;5.00;;;;;;;;;;5066172;28;21331;-64
2022/05/09 04:44:22;;;;;;;6.07;5.03;;;;;;;;;;5062152;28;20210;-64
2022/05/09 04:46:50;;;;;;;5.57;5.07;;;;;;;;;;5064337;28;20305;-64
2022/05/09 04:49:18;;;;;;;6.70;5.00;;;;;;;;;;5061924;28;20206;-64
2022/05/09 04:51:46;;;;;;;9.13;5.70;;;;;;;;;;5069833;28;20246;-64
2022/05/09 04:54:16;;;;;;;6.17;5.40;;;;;;;;;;5074286;28;20729;-63
2022/05/09 04:56:44;;;;;;;6.73;5.20;;;;;;;;;;5070392;28;20275;-64
2022/05/09 04:59:12;;;;;;;5.53;4.63;;;;;;;;;;5067219;28;20230;-65
2022/05/09 05:01:41;;;;;;;8.83;5.43;;;;;;;;;;5064960;28;20246;-62
2022/05/09 05:04:10;;;;;;;9.07;5.43;;;;;;;;;;5066806;28;20632;-63
2022/05/09 05:06:38;;;;;;;5.17;4.67;;;;;;;;;;5063618;28;20751;-63
2022/05/09 05:09:06;;;;;;;5.63;4.43;;;;;;;;;;5067724;28;20195;-63
2022/05/09 05:11:34;;;;;;;8.30;5.30;;;;;;;;;;5066325;28;20253;-63
2022/05/09 05:14:02;;;;;;;7.33;5.80;;;;;;;;;;5064776;28;20202;-64
2022/05/09 05:19:13;;;;;;;8.90;6.90;;;;;;;;;;5069279;28;20234;-65
2022/05/09 05:21:42;;;;;;;12.47;9.13;;;;;;;;;;5069447;28;20278;-65
2022/05/09 05:24:10;;;;;;;12.47;8.93;;;;;;;;;;5068439;28;20198;-65
2022/05/09 05:26:39;;;;;;;13.80;8.80;;;;;;;;;;5067927;28;20246;-65
2022/05/09 05:29:07;;;;;;;13.60;8.30;;;;;;;;;;5070280;28;20241;-65
2022/05/09 05:31:41;;;;;;;11.27;8.43;;;;;;;;;;5071376;28;20219;-65
2022/05/09 05:34:09;;;;;;;9.20;7.87;;;;;;;;;;5068737;28;20214;-65
2022/05/09 05:36:39;;;;;;;8.70;7.67;;;;;;;;;;5065570;28;20600;-70
2022/05/09 05:39:08;;;;;;;9.47;7.63;;;;;;;;;;5070517;28;20242;-72
2022/05/09 05:41:36;;;;;;;11.27;7.23;;;;;;;;;;5076789;28;20206;-70
2022/05/09 05:44:08;;;;;;;9.63;7.77;;;;;;;;;;5063832;28;20233;-70
2022/05/09 05:46:37;;;;;;;11.70;7.23;;;;;;;;;;5069825;28;20260;-70
2022/05/09 05:49:05;;;;;;;8.93;7.77;;;;;;;;;;5067493;28;20198;-72
2022/05/09 05:51:33;;;;;;;8.77;7.87;;;;;;;;;;5068488;28;20578;-69
2022/05/09 05:54:03;;;;;;;11.97;7.57;;;;;;;;;;5068405;28;20541;-71
2022/05/09 05:56:31;;;;;;;9.23;7.17;;;;;;;;;;5070871;28;20280;-70
2022/05/09 05:59:04;;;;;;;12.90;7.57;;;;;;;;;;5066398;28;20194;-71
2022/05/09 06:01:33;;;;;;;9.87;6.73;;;;;;;;;;5067483;28;20245;-71
2022/05/09 06:04:02;;;;;;;8.57;7.00;;;;;;;;;;5066149;28;20697;-71
2022/05/09 06:06:30;;;;;;;9.70;6.97;;;;;;;;;;5065509;28;20250;-71
2022/05/09 06:08:58;;;;;;;8.90;6.90;;;;;;;;;;5072435;28;20202;-71
2022/05/09 06:11:27;;;;;;;7.77;6.07;;;;;;;;;;5061620;28;20222;-71
2022/05/09 06:13:55;;;;;;;6.50;5.77;;;;;;;;;;5071392;28;20225;-69
2022/05/09 06:16:23;;;;;;;6.83;6.00;;;;;;;;;;5064278;28;20236;-68
2022/05/09 06:18:52;;;;;;;6.73;5.93;;;;;;;;;;5077417;28;20272;-69
2022/05/09 06:21:21;;;;;;;8.23;6.23;;;;;;;;;;5067235;28;20199;-69
2022/05/09 06:23:53;;;;;;;9.30;5.87;;;;;;;;;;5066273;28;20238;-69
2022/05/09 06:26:22;;;;;;;6.63;5.90;;;;;;;;;;5073759;28;20311;-69
2022/05/09 06:28:52;;;;;;;6.90;5.80;;;;;;;;;;5065157;28;20199;-69
2022/05/09 06:31:23;;;;;;;8.63;5.87;;;;;;;;;;5067218;28;20218;-69
2022/05/09 06:33:51;;;;;;;7.30;5.77;;;;;;;;;;5063809;28;20659;-69
2022/05/09 06:36:19;;;;;;;15.77;5.50;;;;;;;;;;5060910;28;20729;-70
2022/05/09 06:38:47;;;;;;;7.87;5.70;;;;;;;;;;5065638;28;20226;-69
2022/05/09 06:41:16;;;;;;;6.73;6.00;;;;;;;;;;5063104;28;20237;-69
2022/05/09 06:43:44;;;;;;;8.40;5.50;;;;;;;;;;5064041;28;20223;-69
2022/05/09 06:46:14;;;;;;;6.37;5.60;;;;;;;;;;5067287;28;20279;-69
2022/05/09 06:48:42;;;;;;;6.13;5.47;;;;;;;;;;5060226;28;20237;-68
2022/05/09 06:51:10;;;;;;;6.37;5.77;;;;;;;;;;5063378;28;20309;-68
2022/05/09 06:53:38;;;;;;;9.30;6.07;;;;;;;;;;5070183;28;20207;-69
2022/05/09 06:56:06;;;;;;;10.63;6.33;;;;;;;;;;5072768;28;20254;-70
2022/05/09 06:58:34;;;;;;;9.20;6.00;;;;;;;;;;5070875;28;20229;-72
2022/05/09 07:01:12;;;;;;;7.90;5.70;;;;;;;;;;5065781;28;20537;-71
2022/05/09 07:03:41;;;;;;;8.43;5.77;;;;;;;;;;5067285;28;20683;-71
2022/05/09 07:06:09;;;;;;;10.20;5.87;;;;;;;;;;5067629;28;20229;-71
2022/05/09 07:08:38;;;;;;;7.47;6.00;;;;;;;;;;5065104;28;20673;-70
2022/05/09 07:11:07;;;;;;;6.50;5.53;;;;;;;;;;5066682;28;20693;-71
2022/05/09 07:13:41;;;;;;;6.63;6.00;;;;;;;;;;5065450;28;20230;-69
2022/05/09 07:16:09;;;;;;;6.57;5.43;;;;;;;;;;5066805;28;20652;-69
2022/05/09 07:18:38;;;;;;;9.50;6.10;;;;;;;;;;5067615;28;20201;-69
2022/05/09 07:21:08;;;;;;;6.20;5.60;;;;;;;;;;5067879;28;20245;-69
2022/05/09 07:23:36;;;;;;;7.87;5.83;;;;;;;;;;5061666;28;20226;-68
2022/05/09 07:26:04;;;;;;;5.93;5.33;;;;;;;;;;5066266;28;20219;-69
2022/05/09 07:28:33;;;;;;;9.03;4.97;;;;;;;;;;5066303;28;20619;-68
2022/05/09 07:31:01;;;;;;;6.50;5.50;;;;;;;;;;5068476;28;20245;-68
2022/05/09 07:33:30;;;;;;;7.73;5.97;;;;;;;;;;5068575;28;20227;-68
2022/05/09 07:35:58;;;;;;;9.50;5.77;;;;;;;;;;5065030;28;20767;-68
2022/05/09 07:38:28;;;;;;;5.60;4.97;;;;;;;;;;5066363;28;20238;-73
2022/05/09 07:40:56;;;;;;;6.70;5.60;;;;;;;;;;5066670;28;20230;-72
2022/05/09 07:43:25;;;;;;;7.90;5.27;;;;;;;;;;5065999;28;20229;-71
2022/05/09 07:45:55;;;;;;;6.40;5.63;;;;;;;;;;5067385;28;20310;-71
2022/05/09 07:48:24;;;;;;;9.33;5.73;;;;;;;;;;5065555;28;20274;-69
2022/05/09 07:50:54;;;;;;;10.07;5.90;;;;;;;;;;5064590;28;20237;-72
2022/05/09 07:53:23;;;;;;;7.43;5.47;;;;;;;;;;5063251;28;20222;-72
2022/05/09 07:55:54;;;;;;;6.57;5.23;;;;;;;;;;5064327;28;20649;-72
2022/05/09 07:58:22;;;;;;;8.00;5.50;;;;;;;;;;5065604;28;20230;-73
2022/05/09 08:00:51;;;;;;;6.17;5.57;;;;;;;;;;5070223;28;20232;-71
2022/05/09 08:03:20;;;;;;;6.30;5.53;;;;;;;;;;5065027;28;20257;-70
2022/05/09 08:05:49;;;;;;;6.73;6.17;;;;;;;;;;5067479;28;20215;-73
2022/05/09 08:08:18;;;;;;;7.70;6.00;;;;;;;;;;5066544;28;20195;-72
2022/05/09 08:10:46;;;;;;;6.40;5.90;;;;;;;;;;5067477;28;20205;-69
2022/05/09 08:13:17;;;;;;;6.47;5.27;;;;;;;;;;5069060;28;20218;-72
2022/05/09 08:15:46;;;;;;;7.67;5.50;;;;;;;;;;5067506;28;20223;-72
2022/05/09 08:18:14;;;;;;;6.73;5.77;;;;;;;;;;5068468;28;20211;-73
2022/05/09 08:20:45;;;;;;;6.10;5.50;;;;;;;;;;5065426;28;20232;-72
2022/05/09 08:23:15;;;;;;;6.00;5.50;;;;;;;;;;5067155;28;20202;-70
2022/05/09 08:25:44;;;;;;;7.27;5.57;;;;;;;;;;5065861;28;20252;-71
2022/05/09 08:28:13;;;;;;;7.23;5.67;;;;;;;;;;5065028;28;20237;-71
2022/05/09 08:30:43;;;;;;;6.20;5.60;;;;;;;;;;5070021;28;20218;-71
2022/05/09 08:33:14;;;;;;;5.77;5.13;;;;;;;;;;5068218;28;20258;-71
2022/05/09 08:35:43;;;;;;;6.07;5.47;;;;;;;;;;5068039;28;20218;-73
2022/05/09 08:38:12;;;;;;;6.60;5.83;;;;;;;;;;5067244;28;20282;-73
2022/05/09 08:40:44;;;;;;;5.90;5.40;;;;;;;;;;5063828;28;20199;-74
2022/05/09 08:43:15;;;;;;;6.43;5.83;;;;;;;;;;5066771;28;20247;-74
2022/05/09 08:45:48;;;;;;;8.77;5.30;;;;;;;;;;5065070;28;20306;-74
2022/05/09 08:48:32;;;;;;;7.07;5.37;;;;;;;;;;5061532;28;20650;-72
2022/05/09 08:51:10;;;;;;;6.03;4.83;;;;;;;;;;5064541;28;20650;-74
2022/05/09 08:53:41;;;;;;;8.60;5.17;;;;;;;;;;5063032;28;20222;-71
2022/05/09 08:56:12;;;;;;;6.60;5.63;;;;;;;;;;5064165;28;20222;-71
2022/05/09 08:58:42;;;;;;;7.03;5.57;;;;;;;;;;5069954;28;20202;-71
2022/05/09 09:01:15;;;;;;;7.77;5.37;;;;;;;;;;5068567;28;20209;-73
2022/05/09 09:03:47;;;;;;;6.30;4.87;;;;;;;;;;5064037;28;20230;-73
2022/05/09 09:06:21;;;;;;;7.23;5.70;;;;;;;;;;5068076;28;20230;-73
2022/05/09 09:08:58;;;;;;;6.00;4.83;;;;;;;;;;5065342;28;20288;-73
2022/05/09 09:11:33;;;;;;;5.40;4.90;;;;;;;;;;5063152;28;20206;-72
2022/05/09 09:14:08;;;;;;;5.67;5.10;;;;;;;;;;5064943;28;20308;-73
2022/05/09 09:16:49;;;;;;;5.20;4.63;;;;;;;;;;5067757;28;20245;-73
2022/05/09 09:19:28;;;;;;;6.87;5.03;;;;;;;;;;5065785;28;20203;-72
2022/05/09 09:22:00;;;;;;;5.40;4.90;;;;;;;;;;5066555;28;20203;-73
2022/05/09 09:24:58;;;;;;;5.97;5.17;;;;;;;;;;5063816;28;20252;-73
2022/05/09 09:27:31;;;;;;;8.80;6.17;;;;;;;;;;5063722;28;20294;-72
2022/05/09 09:30:01;;;;;;;9.73;5.33;;;;;;;;;;5064347;28;20236;-72
2022/05/09 09:32:31;;;;;;;5.33;4.90;;;;;;;;;;5061664;28;20202;-72
2022/05/09 09:35:00;;;;;;;5.70;4.33;;;;;;;;;;5069531;28;20260;-72
2022/05/09 09:37:34;;;;;;;5.40;4.90;;;;;;;;;;5060962;28;20199;-72
2022/05/09 09:40:02;;;;;;;6.80;4.57;;;;;;;;;;5061813;28;20226;-71
2022/05/09 09:42:30;;;;;;;5.67;5.07;;;;;;;;;;5065777;28;20251;-71
2022/05/09 09:45:03;;;;;;;5.57;5.00;;;;;;;;;;5063160;28;20666;-71
2022/05/09 09:47:33;;;;;;;5.33;4.67;;;;;;;;;;5066924;28;20203;-72
2022/05/09 09:50:20;;;;;;;5.03;4.53;;;;;;;;;;5064939;28;20202;-72
2022/05/09 09:52:51;;;;;;;6.10;4.27;;;;;;;;;;5063588;28;20231;-72
2022/05/09 09:55:23;;;;;;;4.93;4.43;;;;;;;;;;5064026;28;20207;-71
2022/05/09 09:57:51;;;;;;;4.53;4.13;;;;;;;;;;5067027;28;20230;-72
2022/05/09 10:00:21;;;;;;;4.83;4.43;;;;;;;;;;5067978;28;20270;-71
2022/05/09 10:02:51;;;;;;;5.97;4.57;;;;;;;;;;5066052;28;20306;-71
2022/05/09 10:05:20;;;;;;;5.23;4.40;;;;;;;;;;5071589;28;20212;-71
2022/05/09 10:07:49;;;;;;;5.40;4.90;;;;;;;;;;5070533;28;20210;-74
2022/05/09 10:10:18;;;;;;;4.40;4.00;;;;;;;;;;5069600;28;20642;-71
2022/05/09 10:12:48;;;;;;;5.07;4.57;;;;;;;;;;5069304;28;20202;-72
2022/05/09 10:15:22;;;;;;;4.80;4.40;;;;;;;;;;5068115;28;20226;-72
2022/05/09 10:17:52;;;;;;;7.40;4.17;;;;;;;;;;5066657;28;20199;-73
2022/05/09 10:20:27;;;;;;;5.17;4.67;;;;;;;;;;5068427;28;20225;-72
2022/05/09 10:25:57;;;;;;;4.93;4.53;;;;;;;;;;5066046;28;20709;-73
2022/05/09 10:28:26;;;;;;;5.20;4.70;;;;;;;;;;5065410;28;20198;-73
2022/05/09 10:30:56;;;;;;;4.90;4.43;;;;;;;;;;5068617;28;20195;-73
2022/05/09 10:33:31;;;;;;;5.37;4.87;;;;;;;;;;5065389;28;20214;-73
2022/05/09 10:36:01;;;;;;;6.20;4.83;;;;;;;;;;5068285;28;20264;-73
2022/05/09 10:38:34;;;;;;;6.17;5.57;;;;;;;;;;5069909;28;20229;-73
2022/05/09 10:41:09;;;;;;;5.23;4.77;;;;;;;;;;5069480;28;20635;-73
2022/05/09 10:43:39;;;;;;;17.37;11.63;;;;;;;;;;5067500;28;20211;-72
2022/05/09 10:46:10;;;;;;;7.87;4.87;;;;;;;;;;5070602;28;20244;-72
2022/05/09 10:48:43;;;;;;;5.83;5.33;;;;;;;;;;5072093;28;20195;-72
2022/05/09 10:51:13;;;;;;;5.17;4.20;;;;;;;;;;5067280;28;20229;-71
2022/05/09 10:54:05;;;;;;;4.80;4.40;;;;;;;;;;5067194;28;20291;-73
2022/05/09 10:56:37;;;;;;;5.77;5.10;;;;;;;;;;5065598;28;20583;-72
2022/05/09 10:59:06;;;;;;;5.13;4.67;;;;;;;;;;5068600;28;20236;-72
2022/05/09 11:01:35;;;;;;;5.23;4.63;;;;;;;;;;5065655;28;20201;-73
2022/05/09 11:04:05;;;;;;;4.97;4.23;;;;;;;;;;5069490;28;20254;-72
2022/05/09 11:06:42;;;;;;;4.77;4.07;;;;;;;;;;5065985;28;20229;-72
2022/05/09 11:09:25;;;;;;;5.07;4.67;;;;;;;;;;5067691;28;20194;-71
2022/05/09 11:11:59;;;;;;;7.20;5.03;;;;;;;;;;5063663;28;20234;-71
2022/05/09 11:14:34;;;;;;;8.60;4.60;;;;;;;;;;5071613;28;20219;-71
2022/05/09 11:17:08;;;;;;;5.47;4.70;;;;;;;;;;5061876;28;20726;-71
2022/05/09 11:19:43;;;;;;;5.63;4.80;;;;;;;;;;5070397;28;20230;-72
2022/05/09 11:22:16;;;;;;;5.17;4.70;;;;;;;;;;5069180;28;20675;-72
2022/05/09 11:24:51;;;;;;;5.00;4.47;;;;;;;;;;5067135;28;20669;-71
2022/05/09 11:27:27;;;;;;;5.70;4.90;;;;;;;;;;5063406;28;20381;-72
2022/05/09 11:30:20;;;;;;;5.63;4.87;;;;;;;;;;5067731;28;20203;-70
2022/05/09 11:32:51;;;;;;;5.23;4.20;;;;;;;;;;5066844;28;20567;-73
2022/05/09 11:35:28;;;;;;;4.53;4.13;;;;;;;;;;5062748;28;20259;-72
2022/05/09 11:38:03;;;;;;;4.67;4.27;;;;;;;;;;5059623;28;20226;-72
2022/05/09 11:40:36;;;;;;;7.17;4.30;;;;;;;;;;5072398;28;20202;-69
2022/05/09 11:46:16;;;;;;;6.60;5.10;;;;;;;;;;5053619;28;20258;-71
2022/05/09 11:48:50;;;;;;;5.83;5.33;;;;;;;;;;5063082;28;20250;-70
2022/05/09 11:51:25;;;;;;;4.20;3.80;;;;;;;;;;5061354;28;20266;-72
2022/05/09 11:53:55;;;;;;;4.40;4.00;;;;;;;;;;5063872;28;20305;-74
2022/05/09 11:56:24;;;;;;;3.87;3.57;;;;;;;;;;5069983;28;20313;-71
2022/05/09 11:58:53;;;;;;;5.27;4.73;;;;;;;;;;5063258;28;20241;-71
2022/05/09 12:01:35;;;;;;;4.90;4.17;;;;;;;;;;5068375;28;20203;-68
2022/05/09 12:04:04;;;;;;;4.70;4.03;;;;;;;;;;5059750;28;21021;-68
2022/05/09 12:06:35;;;;;;;3.73;3.43;;;;;;;;;;5061151;28;20229;-68
2022/05/09 12:09:08;;;;;;;4.33;3.27;;;;;;;;;;5067763;28;20291;-70
2022/05/09 12:11:47;;;;;;;7.27;4.30;;;;;;;;;;5062680;28;20202;-69
2022/05/09 12:14:30;;;;;;;6.50;5.43;;;;;;;;;;5059052;28;20663;-71
2022/05/09 12:16:58;;;;;;;4.90;4.40;;;;;;;;;;5062832;28;20257;-72
2022/05/09 12:19:31;;;;;;;4.83;4.43;;;;;;;;;;5066814;28;20230;-71
2022/05/09 12:22:33;;;;;;;6.20;4.17;;;;;;;;;;5064975;28;20202;-68
2022/05/09 12:25:02;;;;;;;4.70;4.30;;;;;;;;;;5064455;28;20195;-68
2022/05/09 12:27:41;;;;;;;5.40;4.70;;;;;;;;;;5067603;28;20203;-71
2022/05/09 12:30:12;;;;;;;5.80;5.30;;;;;;;;;;5069394;28;20247;-69
2022/05/09 12:32:41;;;;;;;4.77;4.43;;;;;;;;;;5064479;28;20688;-69
2022/05/09 12:35:09;;;;;;;5.10;4.63;;;;;;;;;;5071362;28;20232;-68
2022/05/09 12:37:57;;;;;;;4.83;4.43;;;;;;;;;;5064604;28;20281;-71
2022/05/09 12:40:26;;;;;;;4.30;3.57;;;;;;;;;;5069001;28;20657;-70
2022/05/09 12:42:56;;;;;;;4.13;3.57;;;;;;;;;;5067454;28;20203;-70
2022/05/09 12:45:25;;;;;;;5.07;3.63;;;;;;;;;;5071205;28;20250;-70
2022/05/09 12:47:53;;;;;;;4.37;3.63;;;;;;;;;;5071098;28;20230;-71
2022/05/09 12:50:26;;;;;;;4.53;4.17;;;;;;;;;;5060728;28;20208;-70
2022/05/09 12:52:56;;;;;;;4.13;3.83;;;;;;;;;;5061108;28;20258;-70
2022/05/09 12:58:23;;;;;;;4.33;3.90;;;;;;;;;;5060792;28;20234;-70
2022/05/09 13:00:56;;;;;;;7.60;4.37;;;;;;;;;;5062464;28;20208;-69
2022/05/09 13:03:45;;;;;;;3.90;3.60;;;;;;;;;;5058884;28;20265;-69
2022/05/09 13:06:15;;;;;;;4.97;3.87;;;;;;;;;;5063403;28;20262;-71
2022/05/09 13:08:43;;;;;;;3.93;3.53;;;;;;;;;;5068572;28;20209;-69
2022/05/09 13:11:17;;;;;;;5.60;4.27;;;;;;;;;;5069609;28;20229;-69
2022/05/09 13:13:53;;;;;;;5.40;3.60;;;;;;;;;;5069877;28;20286;-70
2022/05/09 13:16:23;;;;;;;4.20;3.37;;;;;;;;;;5060915;28;20258;-70
2022/05/09 13:18:51;;;;;;;3.93;3.30;;;;;;;;;;5067454;28;20202;-69
2022/05/09 13:21:24;;;;;;;3.93;3.30;;;;;;;;;;5062015;28;20635;-68
2022/05/09 13:23:52;;;;;;;6.77;3.40;;;;;;;;;;5064774;28;20381;-67
2022/05/09 13:26:23;;;;;;;3.90;3.50;;;;;;;;;;5056620;28;20231;-68
2022/05/09 13:28:52;;;;;;;3.10;2.80;;;;;;;;;;5056965;28;20235;-67
2022/05/09 13:31:28;;;;;;;3.90;3.60;;;;;;;;;;5066889;28;20710;-68
2022/05/09 13:33:56;;;;;;;6.23;3.70;;;;;;;;;;5070379;28;20201;-68
2022/05/09 13:36:35;;;;;;;3.30;2.93;;;;;;;;;;5070013;28;20269;-68
2022/05/09 13:39:04;;;;;;;5.07;3.23;;;;;;;;;;5069255;28;20735;-67
2022/05/09 13:41:35;;;;;;;3.33;3.03;;;;;;;;;;5074891;28;20651;-70
2022/05/09 13:44:05;;;;;;;3.27;2.97;;;;;;;;;;5075440;28;20197;-68
2022/05/09 13:46:34;;;;;;;3.27;3.07;;;;;;;;;;5065918;28;20292;-68
2022/05/09 13:49:06;;;;;;;3.93;3.10;;;;;;;;;;5073818;28;20232;-68
2022/05/09 13:51:35;;;;;;;3.60;3.30;;;;;;;;;;5076103;28;20200;-71
2022/05/09 13:54:05;;;;;;;3.57;3.07;;;;;;;;;;5078867;28;20224;-71
2022/05/09 13:56:36;;;;;;;5.97;3.17;;;;;;;;;;5073180;28;20227;-70
2022/05/09 13:59:24;;;;;;;3.30;3.07;;;;;;;;;;5071673;28;20203;-68
2022/05/09 14:01:54;;;;;;;2.50;2.40;;;;;;;;;;5076386;28;20270;-70
2022/05/09 14:04:23;;;;;;;2.70;2.50;;;;;;;;;;5074754;28;20206;-71
2022/05/09 14:06:51;;;;;;;6.87;2.97;;;;;;;;;;5071025;28;20215;-71
2022/05/09 14:09:21;;;;;;;2.93;2.73;;;;;;;;;;5073915;28;20234;-70
2022/05/09 14:11:58;;;;;;;3.27;3.07;;;;;;;;;;5061062;28;20202;-71
2022/05/09 14:14:33;;;;;;;2.90;2.70;;;;;;;;;;5071264;28;21043;-71
2022/05/09 14:17:03;;;;;;;3.27;2.67;;;;;;;;;;5059636;28;20263;-70
2022/05/09 14:19:32;;;;;;;6.53;5.90;;;;;;;;;;5061833;28;20199;-67
2022/05/09 14:22:04;;;;;;;3.13;2.93;;;;;;;;;;5067127;28;20207;-65
2022/05/09 14:24:33;;;;;;;2.87;2.67;;;;;;;;;;5071715;28;20206;-66
2022/05/09 14:29:50;;;;;;;6.90;2.97;;;;;;;;;;5067937;28;20282;-68
2022/05/09 14:32:33;;;;;;;2.67;2.47;;;;;;;;;;5068400;28;20629;-69
2022/05/09 14:35:01;;;;;;;5.50;2.90;;;;;;;;;;5069086;28;20299;-68
2022/05/09 14:37:33;;;;;;;4.10;2.93;;;;;;;;;;5068142;28;20231;-71
2022/05/09 14:40:14;;;;;;;3.10;2.90;;;;;;;;;;5065683;28;20312;-70
2022/05/09 14:42:51;;;;;;;5.63;2.80;;;;;;;;;;5064078;28;20236;-71
2022/05/09 14:45:23;;;;;;;4.07;2.60;;;;;;;;;;5065075;28;20227;-71
2022/05/09 14:47:53;;;;;;;2.80;2.60;;;;;;;;;;5066182;28;20225;-70
2022/05/09 14:50:23;;;;;;;3.63;3.30;;;;;;;;;;5071704;28;20684;-72
2022/05/09 14:52:55;;;;;;;3.50;3.20;;;;;;;;;;5067104;28;20232;-72
2022/05/09 14:58:18;;;;;;;3.10;2.90;;;;;;;;;;5070893;28;20206;-72
2022/05/09 15:00:50;;;;;;;3.60;3.30;;;;;;;;;;5062356;28;20686;-68
2022/05/09 15:03:19;;;;;;;2.93;2.70;;;;;;;;;;5065003;28;20231;-68
2022/05/09 15:05:48;;;;;;;3.50;3.20;;;;;;;;;;5077699;28;20279;-68
2022/05/09 15:08:16;;;;;;;3.03;2.83;;;;;;;;;;5069779;28;20677;-69
2022/05/09 15:10:44;;;;;;;2.77;2.60;;;;;;;;;;5067727;28;20333;-68
2022/05/09 15:13:14;;;;;;;4.60;3.50;;;;;;;;;;5067563;28;20241;-67
2022/05/09 15:15:45;;;;;;;3.67;2.73;;;;;;;;;;5066300;28;20229;-66
2022/05/09 15:18:13;;;;;;;3.37;3.10;;;;;;;;;;5065920;28;20226;-66
2022/05/09 15:20:41;;;;;;;3.40;3.00;;;;;;;;;;5066211;28;20262;-68
2022/05/09 15:23:09;;;;;;;3.27;2.97;;;;;;;;;;5071467;28;20242;-67
2022/05/09 15:25:38;;;;;;;3.03;2.80;;;;;;;;;;5066554;28;20739;-70
2022/05/09 15:28:06;;;;;;;2.97;2.77;;;;;;;;;;5065731;28;20240;-70
2022/05/09 15:30:34;;;;;;;4.13;3.07;;;;;;;;;;5070693;28;20651;-68